sensor_id;sensor_type;location;lat;lon;timestamp;pressure;altitude;pressure_sealevel;temperature;humidity
57594;BME280;43423;46.510;6.686;2023-05-27T00:01:38;96745.22;;;17.32;69.36
57594;BME280;43423;46.510;6.686;2023-05-27T00:04:04;96745.00;;;17.30;69.04
57594;BME280;43423;46.510;6.686;2023-05-27T00:06:29;96745.97;;;17.33;69.57
57594;BME280;43423;46.510;6.686;2023-05-27T00:08:55;96748.47;;;17.36;68.67
57594;BME280;43423;46.510;6.686;2023-05-27T00:11:20;96754.59;;;17.29;69.42
57594;BME280;43423;46.510;6.686;2023-05-27T00:13:49;96751.88;;;17.23;69.60
57594;BME280;43423;46.510;6.686;2023-05-27T00:16:15;96748.34;;;17.23;69.74
57594;BME280;43423;46.510;6.686;2023-05-27T00:18:42;96761.22;;;17.20;69.65
57594;BME280;43423;46.510;6.686;2023-05-27T00:21:10;96755.47;;;17.13;70.23
57594;BME280;43423;46.510;6.686;2023-05-27T00:23:36;96755.25;;;17.05;70.28
57594;BME280;43423;46.510;6.686;2023-05-27T00:26:01;96760.56;;;17.03;70.36
57594;BME280;43423;46.510;6.686;2023-05-27T00:28:27;96760.38;;;16.95;70.98
57594;BME280;43423;46.510;6.686;2023-05-27T00:30:57;96757.16;;;16.86;71.21
57594;BME280;43423;46.510;6.686;2023-05-27T00:33:23;96750.09;;;16.79;71.98
57594;BME280;43423;46.510;6.686;2023-05-27T00:35:52;96749.88;;;16.77;71.92
57594;BME280;43423;46.510;6.686;2023-05-27T00:38:17;96754.66;;;16.77;72.25
57594;BME280;43423;46.510;6.686;2023-05-27T00:40:43;96751.16;;;16.70;71.55
57594;BME280;43423;46.510;6.686;2023-05-27T00:43:09;96756.97;;;16.67;72.07
57594;BME280;43423;46.510;6.686;2023-05-27T00:45:37;96753.94;;;16.65;71.99
57594;BME280;43423;46.510;6.686;2023-05-27T00:48:03;96747.63;;;16.64;72.25
57594;BME280;43423;46.510;6.686;2023-05-27T00:50:30;96747.16;;;16.60;72.10
57594;BME280;43423;46.510;6.686;2023-05-27T00:52:59;96744.13;;;16.58;72.38
57594;BME280;43423;46.510;6.686;2023-05-27T00:55:24;96740.38;;;16.50;72.58
57594;BME280;43423;46.510;6.686;2023-05-27T00:57:50;96734.84;;;16.44;73.42
57594;BME280;43423;46.510;6.686;2023-05-27T01:00:24;96737.38;;;16.42;72.89
57594;BME280;43423;46.510;6.686;2023-05-27T01:02:50;96736.38;;;16.45;73.09
57594;BME280;43423;46.510;6.686;2023-05-27T01:05:16;96740.91;;;16.43;72.64
57594;BME280;43423;46.510;6.686;2023-05-27T01:10:43;96726.97;;;16.54;72.47
57594;BME280;43423;46.510;6.686;2023-05-27T01:13:34;96731.56;;;16.46;73.00
57594;BME280;43423;46.510;6.686;2023-05-27T01:16:02;96738.41;;;16.39;73.30
57594;BME280;43423;46.510;6.686;2023-05-27T01:18:30;96731.34;;;16.38;72.74
57594;BME280;43423;46.510;6.686;2023-05-27T01:21:05;96725.56;;;16.31;73.36
57594;BME280;43423;46.510;6.686;2023-05-27T01:23:34;96721.53;;;16.26;73.43
57594;BME280;43423;46.510;6.686;2023-05-27T01:26:07;96728.84;;;16.29;73.12
57594;BME280;43423;46.510;6.686;2023-05-27T01:28:32;96723.31;;;16.29;73.05
57594;BME280;43423;46.510;6.686;2023-05-27T01:31:10;96733.44;;;16.21;73.62
57594;BME280;43423;46.510;6.686;2023-05-27T01:33:42;96737.94;;;16.24;73.56
57594;BME280;43423;46.510;6.686;2023-05-27T01:36:14;96728.41;;;16.19;73.53
57594;BME280;43423;46.510;6.686;2023-05-27T01:38:46;96734.94;;;16.11;73.89
57594;BME280;43423;46.510;6.686;2023-05-27T01:41:14;96732.97;;;16.06;74.05
57594;BME280;43423;46.510;6.686;2023-05-27T01:43:43;96736.00;;;16.02;74.28
57594;BME280;43423;46.510;6.686;2023-05-27T01:46:09;96734.00;;;15.91;75.03
57594;BME280;43423;46.510;6.686;2023-05-27T01:48:35;96739.31;;;15.78;75.59
57594;BME280;43423;46.510;6.686;2023-05-27T01:51:03;96734.78;;;15.75;76.16
57594;BME280;43423;46.510;6.686;2023-05-27T01:53:29;96733.53;;;15.76;76.23
57594;BME280;43423;46.510;6.686;2023-05-27T01:55:57;96739.06;;;15.76;76.63
57594;BME280;43423;46.510;6.686;2023-05-27T01:58:23;96730.50;;;15.63;77.71
57594;BME280;43423;46.510;6.686;2023-05-27T02:00:48;96736.06;;;15.63;77.28
57594;BME280;43423;46.510;6.686;2023-05-27T02:03:17;96739.06;;;15.54;77.81
57594;BME280;43423;46.510;6.686;2023-05-27T02:05:42;96732.28;;;15.49;77.79
57594;BME280;43423;46.510;6.686;2023-05-27T02:08:08;96736.53;;;15.56;78.03
57594;BME280;43423;46.510;6.686;2023-05-27T02:10:36;96723.94;;;15.55;77.14
57594;BME280;43423;46.510;6.686;2023-05-27T02:13:02;96730.50;;;15.52;76.92
57594;BME280;43423;46.510;6.686;2023-05-27T02:15:31;96725.47;;;15.61;76.36
57594;BME280;43423;46.510;6.686;2023-05-27T02:17:56;96730.00;;;15.59;76.72
57594;BME280;43423;46.510;6.686;2023-05-27T02:20:27;96726.00;;;15.66;76.78
57594;BME280;43423;46.510;6.686;2023-05-27T02:22:54;96725.47;;;15.67;76.27
57594;BME280;43423;46.510;6.686;2023-05-27T02:25:25;96721.44;;;15.68;76.11
57594;BME280;43423;46.510;6.686;2023-05-27T02:28:00;96714.88;;;15.71;75.76
57594;BME280;43423;46.510;6.686;2023-05-27T02:30:31;96718.44;;;15.66;75.69
57594;BME280;43423;46.510;6.686;2023-05-27T02:32:57;96722.47;;;15.65;75.96
57594;BME280;43423;46.510;6.686;2023-05-27T02:35:23;96717.16;;;15.61;77.13
57594;BME280;43423;46.510;6.686;2023-05-27T02:37:49;96724.97;;;15.57;76.48
57594;BME280;43423;46.510;6.686;2023-05-27T02:40:27;96733.28;;;15.52;76.62
57594;BME280;43423;46.510;6.686;2023-05-27T02:42:59;96722.19;;;15.57;76.37
57594;BME280;43423;46.510;6.686;2023-05-27T02:45:30;96727.22;;;15.53;76.47
57594;BME280;43423;46.510;6.686;2023-05-27T02:47:59;96733.78;;;15.50;77.36
57594;BME280;43423;46.510;6.686;2023-05-27T02:50:30;96742.59;;;15.49;77.04
57594;BME280;43423;46.510;6.686;2023-05-27T02:52:56;96732.75;;;15.48;76.92
57594;BME280;43423;46.510;6.686;2023-05-27T02:55:24;96731.00;;;15.45;76.94
57594;BME280;43423;46.510;6.686;2023-05-27T02:57:50;96728.72;;;15.38;77.31
57594;BME280;43423;46.510;6.686;2023-05-27T03:00:24;96733.03;;;15.33;77.88
57594;BME280;43423;46.510;6.686;2023-05-27T03:02:54;96732.00;;;15.30;78.03
57594;BME280;43423;46.510;6.686;2023-05-27T03:05:19;96729.75;;;15.34;78.78
57594;BME280;43423;46.510;6.686;2023-05-27T03:07:45;96733.25;;;15.24;78.22
57594;BME280;43423;46.510;6.686;2023-05-27T03:10:10;96726.22;;;15.17;78.64
57594;BME280;43423;46.510;6.686;2023-05-27T03:12:36;96723.94;;;15.21;78.83
57594;BME280;43423;46.510;6.686;2023-05-27T03:15:02;96724.97;;;15.18;78.49
57594;BME280;43423;46.510;6.686;2023-05-27T03:17:30;96722.44;;;15.20;78.39
57594;BME280;43423;46.510;6.686;2023-05-27T03:19:56;96732.00;;;15.19;78.27
57594;BME280;43423;46.510;6.686;2023-05-27T03:22:21;96716.91;;;15.26;77.82
57594;BME280;43423;46.510;6.686;2023-05-27T03:24:47;96709.84;;;15.19;78.33
57594;BME280;43423;46.510;6.686;2023-05-27T03:27:13;96718.16;;;15.19;78.33
57594;BME280;43423;46.510;6.686;2023-05-27T03:29:42;96710.84;;;15.11;78.57
57594;BME280;43423;46.510;6.686;2023-05-27T03:32:17;96711.59;;;15.05;79.12
57594;BME280;43423;46.510;6.686;2023-05-27T03:34:42;96724.69;;;14.99;78.99
57594;BME280;43423;46.510;6.686;2023-05-27T03:37:08;96721.66;;;14.86;80.23
57594;BME280;43423;46.510;6.686;2023-05-27T03:39:34;96719.09;;;14.77;80.73
57594;BME280;43423;46.510;6.686;2023-05-27T03:42:00;96718.13;;;14.86;80.43
57594;BME280;43423;46.510;6.686;2023-05-27T03:44:32;96728.97;;;14.95;80.46
57594;BME280;43423;46.510;6.686;2023-05-27T03:47:07;96727.41;;;14.83;80.93
57594;BME280;43423;46.510;6.686;2023-05-27T03:49:33;96720.34;;;14.76;81.42
57594;BME280;43423;46.510;6.686;2023-05-27T03:52:01;96730.22;;;14.88;80.20
57594;BME280;43423;46.510;6.686;2023-05-27T03:54:29;96738.53;;;14.94;79.52
57594;BME280;43423;46.510;6.686;2023-05-27T03:56:55;96733.00;;;14.94;79.98
57594;BME280;43423;46.510;6.686;2023-05-27T03:59:21;96725.66;;;14.91;80.02
57594;BME280;43423;46.510;6.686;2023-05-27T04:01:46;96723.91;;;14.99;79.79
57594;BME280;43423;46.510;6.686;2023-05-27T04:04:13;96724.94;;;14.96;79.92
57594;BME280;43423;46.510;6.686;2023-05-27T04:06:38;96731.47;;;14.93;79.96
57594;BME280;43423;46.510;6.686;2023-05-27T04:09:04;96737.00;;;14.93;79.77
57594;BME280;43423;46.510;6.686;2023-05-27T04:11:30;96742.03;;;15.00;78.57
57594;BME280;43423;46.510;6.686;2023-05-27T04:13:56;96740.56;;;15.10;77.96
57594;BME280;43423;46.510;6.686;2023-05-27T04:16:24;96737.75;;;14.99;78.32
57594;BME280;43423;46.510;6.686;2023-05-27T04:18:58;96736.75;;;14.96;78.47
57594;BME280;43423;46.510;6.686;2023-05-27T04:21:27;96740.78;;;14.95;78.60
57594;BME280;43423;46.510;6.686;2023-05-27T04:23:52;96733.47;;;14.87;79.10
57594;BME280;43423;46.510;6.686;2023-05-27T04:26:21;96738.97;;;14.75;79.48
57594;BME280;43423;46.510;6.686;2023-05-27T04:28:55;96739.97;;;14.67;79.47
57594;BME280;43423;46.510;6.686;2023-05-27T04:31:25;96747.75;;;14.68;80.21
57594;BME280;43423;46.510;6.686;2023-05-27T04:33:54;96744.78;;;14.72;79.72
57594;BME280;43423;46.510;6.686;2023-05-27T04:36:20;96746.31;;;14.90;79.43
57594;BME280;43423;46.510;6.686;2023-05-27T04:38:55;96747.31;;;14.92;78.91
57594;BME280;43423;46.510;6.686;2023-05-27T04:41:24;96745.31;;;14.93;79.36
57594;BME280;43423;46.510;6.686;2023-05-27T04:43:55;96758.66;;;15.00;78.54
57594;BME280;43423;46.510;6.686;2023-05-27T04:46:28;96756.66;;;15.06;78.82
57594;BME280;43423;46.510;6.686;2023-05-27T04:48:56;96743.31;;;15.04;78.57
57594;BME280;43423;46.510;6.686;2023-05-27T04:51:22;96755.41;;;15.13;78.01
57594;BME280;43423;46.510;6.686;2023-05-27T04:53:51;96753.91;;;15.12;77.97
57594;BME280;43423;46.510;6.686;2023-05-27T04:56:16;96752.91;;;15.20;77.66
57594;BME280;43423;46.510;6.686;2023-05-27T04:58:48;96746.09;;;15.21;77.79
57594;BME280;43423;46.510;6.686;2023-05-27T05:01:17;96752.66;;;15.29;77.12
57594;BME280;43423;46.510;6.686;2023-05-27T05:03:44;96756.44;;;15.32;77.06
57594;BME280;43423;46.510;6.686;2023-05-27T05:06:22;96747.38;;;15.26;77.93
57594;BME280;43423;46.510;6.686;2023-05-27T05:08:48;96750.41;;;15.28;78.03
57594;BME280;43423;46.510;6.686;2023-05-27T05:11:14;96761.22;;;15.31;78.18
57594;BME280;43423;46.510;6.686;2023-05-27T05:13:39;96765.50;;;15.38;80.04
57594;BME280;43423;46.510;6.686;2023-05-27T05:16:06;96761.00;;;15.41;79.35
57594;BME280;43423;46.510;6.686;2023-05-27T05:18:31;96759.97;;;15.55;79.91
57594;BME280;43423;46.510;6.686;2023-05-27T05:20:57;96765.31;;;15.64;79.38
57594;BME280;43423;46.510;6.686;2023-05-27T05:23:22;96753.94;;;15.79;78.31
57594;BME280;43423;46.510;6.686;2023-05-27T05:25:48;96766.28;;;15.83;76.42
57594;BME280;43423;46.510;6.686;2023-05-27T05:28:20;96757.69;;;15.93;75.37
57594;BME280;43423;46.510;6.686;2023-05-27T05:30:46;96762.69;;;16.11;75.91
57594;BME280;43423;46.510;6.686;2023-05-27T05:33:12;96765.97;;;16.21;75.20
57594;BME280;43423;46.510;6.686;2023-05-27T05:35:37;96769.44;;;16.32;75.15
57594;BME280;43423;46.510;6.686;2023-05-27T05:38:03;96763.13;;;16.37;73.83
57594;BME280;43423;46.510;6.686;2023-05-27T05:40:29;96759.34;;;16.35;74.20
57594;BME280;43423;46.510;6.686;2023-05-27T05:42:54;96765.84;;;16.54;75.94
57594;BME280;43423;46.510;6.686;2023-05-27T05:45:20;96765.28;;;16.67;74.02
57594;BME280;43423;46.510;6.686;2023-05-27T05:47:45;96768.34;;;16.69;72.91
57594;BME280;43423;46.510;6.686;2023-05-27T05:50:11;96775.88;;;16.68;72.91
57594;BME280;43423;46.510;6.686;2023-05-27T05:52:36;96767.22;;;16.89;72.79
57594;BME280;43423;46.510;6.686;2023-05-27T05:55:02;96766.41;;;16.99;72.82
57594;BME280;43423;46.510;6.686;2023-05-27T05:57:28;96766.34;;;17.11;71.36
57594;BME280;43423;46.510;6.686;2023-05-27T05:59:57;96765.28;;;17.14;71.31
57594;BME280;43423;46.510;6.686;2023-05-27T06:02:23;96767.28;;;17.19;71.13
57594;BME280;43423;46.510;6.686;2023-05-27T06:04:49;96769.75;;;17.28;69.86
57594;BME280;43423;46.510;6.686;2023-05-27T06:07:14;96769.44;;;17.37;69.93
57594;BME280;43423;46.510;6.686;2023-05-27T06:09:40;96765.22;;;17.61;69.64
57594;BME280;43423;46.510;6.686;2023-05-27T06:12:06;96757.81;;;17.69;69.71
57594;BME280;43423;46.510;6.686;2023-05-27T06:14:31;96762.19;;;17.58;68.28
57594;BME280;43423;46.510;6.686;2023-05-27T06:16:57;96756.06;;;17.71;68.08
57594;BME280;43423;46.510;6.686;2023-05-27T06:19:23;96767.81;;;17.83;69.47
57594;BME280;43423;46.510;6.686;2023-05-27T06:21:48;96769.22;;;17.71;70.03
57594;BME280;43423;46.510;6.686;2023-05-27T06:24:14;96764.81;;;17.81;70.97
57594;BME280;43423;46.510;6.686;2023-05-27T06:26:40;96762.69;;;17.63;70.95
57594;BME280;43423;46.510;6.686;2023-05-27T06:29:06;96768.59;;;17.83;70.13
57594;BME280;43423;46.510;6.686;2023-05-27T06:31:31;96766.13;;;18.04;70.49
57594;BME280;43423;46.510;6.686;2023-05-27T06:33:58;96759.28;;;18.05;69.88
57594;BME280;43423;46.510;6.686;2023-05-27T06:36:24;96762.09;;;18.24;69.26
57594;BME280;43423;46.510;6.686;2023-05-27T06:38:50;96755.44;;;18.08;68.91
57594;BME280;43423;46.510;6.686;2023-05-27T06:41:16;96756.84;;;18.21;68.93
57594;BME280;43423;46.510;6.686;2023-05-27T06:43:42;96752.78;;;18.22;68.06
57594;BME280;43423;46.510;6.686;2023-05-27T06:46:08;96757.72;;;18.10;67.84
57594;BME280;43423;46.510;6.686;2023-05-27T06:48:34;96756.63;;;18.19;67.97
57594;BME280;43423;46.510;6.686;2023-05-27T06:50:59;96748.13;;;18.30;67.21
57594;BME280;43423;46.510;6.686;2023-05-27T06:53:25;96751.44;;;18.28;67.62
57594;BME280;43423;46.510;6.686;2023-05-27T06:55:51;96751.09;;;18.56;66.78
57594;BME280;43423;46.510;6.686;2023-05-27T06:58:17;96751.50;;;18.23;67.68
57594;BME280;43423;46.510;6.686;2023-05-27T07:00:42;96744.19;;;18.44;66.95
57594;BME280;43423;46.510;6.686;2023-05-27T07:03:08;96755.53;;;18.46;67.22
57594;BME280;43423;46.510;6.686;2023-05-27T07:05:34;96750.56;;;18.39;67.57
57594;BME280;43423;46.510;6.686;2023-05-27T07:08:00;96752.88;;;18.35;68.48
57594;BME280;43423;46.510;6.686;2023-05-27T07:10:25;96754.03;;;18.45;67.75
57594;BME280;43423;46.510;6.686;2023-05-27T07:12:51;96744.97;;;18.39;68.08
57594;BME280;43423;46.510;6.686;2023-05-27T07:15:16;96748.63;;;18.53;67.19
57594;BME280;43423;46.510;6.686;2023-05-27T07:17:42;96750.47;;;18.88;65.33
57594;BME280;43423;46.510;6.686;2023-05-27T07:20:11;96747.47;;;18.86;64.12
57594;BME280;43423;46.510;6.686;2023-05-27T07:22:40;96744.22;;;19.01;63.59
57594;BME280;43423;46.510;6.686;2023-05-27T07:25:05;96739.56;;;18.90;65.09
57594;BME280;43423;46.510;6.686;2023-05-27T07:27:32;96736.00;;;19.08;63.20
57594;BME280;43423;46.510;6.686;2023-05-27T07:29:57;96745.72;;;19.02;64.66
57594;BME280;43423;46.510;6.686;2023-05-27T07:32:23;96731.88;;;19.15;63.91
57594;BME280;43423;46.510;6.686;2023-05-27T07:34:48;96737.03;;;19.24;62.38
57594;BME280;43423;46.510;6.686;2023-05-27T07:37:14;96735.78;;;19.06;64.72
57594;BME280;43423;46.510;6.686;2023-05-27T07:39:39;96737.72;;;19.30;62.76
57594;BME280;43423;46.510;6.686;2023-05-27T07:42:05;96737.94;;;19.32;64.08
57594;BME280;43423;46.510;6.686;2023-05-27T07:44:31;96739.13;;;19.37;63.57
57594;BME280;43423;46.510;6.686;2023-05-27T07:46:57;96741.94;;;19.50;63.36
57594;BME280;43423;46.510;6.686;2023-05-27T07:49:24;96741.53;;;19.46;61.36
57594;BME280;43423;46.510;6.686;2023-05-27T07:51:50;96739.16;;;19.50;61.00
57594;BME280;43423;46.510;6.686;2023-05-27T07:54:16;96739.56;;;19.41;61.23
57594;BME280;43423;46.510;6.686;2023-05-27T07:56:41;96742.69;;;19.69;61.93
57594;BME280;43423;46.510;6.686;2023-05-27T07:59:07;96735.19;;;19.77;60.91
57594;BME280;43423;46.510;6.686;2023-05-27T08:01:33;96737.00;;;19.43;61.51
57594;BME280;43423;46.510;6.686;2023-05-27T08:03:59;96732.63;;;19.79;60.71
57594;BME280;43423;46.510;6.686;2023-05-27T08:06:25;96736.38;;;19.82;58.78
57594;BME280;43423;46.510;6.686;2023-05-27T08:08:51;96725.97;;;19.96;58.17
57594;BME280;43423;46.510;6.686;2023-05-27T08:11:17;96730.38;;;19.78;59.59
57594;BME280;43423;46.510;6.686;2023-05-27T08:13:42;96727.41;;;20.16;58.42
57594;BME280;43423;46.510;6.686;2023-05-27T08:16:08;96723.84;;;20.02;58.95
57594;BME280;43423;46.510;6.686;2023-05-27T08:18:36;96713.34;;;20.48;58.60
57594;BME280;43423;46.510;6.686;2023-05-27T08:21:02;96716.34;;;20.10;57.50
57594;BME280;43423;46.510;6.686;2023-05-27T08:23:28;96713.53;;;20.10;58.68
57594;BME280;43423;46.510;6.686;2023-05-27T08:25:53;96705.59;;;20.14;58.30
57594;BME280;43423;46.510;6.686;2023-05-27T08:28:19;96707.72;;;20.21;58.57
57594;BME280;43423;46.510;6.686;2023-05-27T08:30:45;96706.44;;;20.35;58.48
57594;BME280;43423;46.510;6.686;2023-05-27T08:33:12;96704.59;;;20.78;58.58
57594;BME280;43423;46.510;6.686;2023-05-27T08:35:37;96708.88;;;20.79;57.23
57594;BME280;43423;46.510;6.686;2023-05-27T08:38:03;96708.34;;;21.01;58.09
57594;BME280;43423;46.510;6.686;2023-05-27T08:40:29;96708.41;;;20.88;57.51
57594;BME280;43423;46.510;6.686;2023-05-27T08:42:55;96703.59;;;20.75;57.03
57594;BME280;43423;46.510;6.686;2023-05-27T08:45:21;96698.50;;;20.40;57.86
57594;BME280;43423;46.510;6.686;2023-05-27T08:47:47;96697.34;;;20.82;57.42
57594;BME280;43423;46.510;6.686;2023-05-27T08:50:14;96695.94;;;20.55;57.65
57594;BME280;43423;46.510;6.686;2023-05-27T08:52:48;96701.47;;;21.36;58.69
57594;BME280;43423;46.510;6.686;2023-05-27T08:55:16;96686.69;;;21.28;57.36
57594;BME280;43423;46.510;6.686;2023-05-27T08:57:54;96695.75;;;21.42;56.88
57594;BME280;43423;46.510;6.686;2023-05-27T09:00:21;96693.19;;;21.10;57.51
57594;BME280;43423;46.510;6.686;2023-05-27T09:02:47;96695.75;;;21.42;56.54
57594;BME280;43423;46.510;6.686;2023-05-27T09:05:14;96691.53;;;21.28;55.47
57594;BME280;43423;46.510;6.686;2023-05-27T09:07:40;96689.66;;;21.30;56.46
57594;BME280;43423;46.510;6.686;2023-05-27T09:10:06;96688.78;;;21.56;57.24
57594;BME280;43423;46.510;6.686;2023-05-27T09:12:32;96692.13;;;21.55;57.02
57594;BME280;43423;46.510;6.686;2023-05-27T09:14:59;96688.13;;;21.42;55.62
57594;BME280;43423;46.510;6.686;2023-05-27T09:17:25;96683.06;;;21.41;55.72
57594;BME280;43423;46.510;6.686;2023-05-27T09:19:51;96685.91;;;21.69;57.28
57594;BME280;43423;46.510;6.686;2023-05-27T09:22:28;96678.53;;;22.08;56.26
57594;BME280;43423;46.510;6.686;2023-05-27T09:24:55;96677.50;;;22.26;53.21
57594;BME280;43423;46.510;6.686;2023-05-27T09:27:25;96677.75;;;21.79;54.50
57594;BME280;43423;46.510;6.686;2023-05-27T09:29:51;96674.16;;;21.99;54.88
57594;BME280;43423;46.510;6.686;2023-05-27T09:32:27;96679.16;;;21.65;54.42
57594;BME280;43423;46.510;6.686;2023-05-27T09:34:57;96671.91;;;22.26;54.45
57594;BME280;43423;46.510;6.686;2023-05-27T09:37:27;96668.53;;;22.64;53.75
57594;BME280;43423;46.510;6.686;2023-05-27T09:40:04;96670.06;;;22.80;52.25
57594;BME280;43423;46.510;6.686;2023-05-27T09:42:46;96675.06;;;22.23;53.40
57594;BME280;43423;46.510;6.686;2023-05-27T09:45:19;96667.56;;;22.18;55.25
57594;BME280;43423;46.510;6.686;2023-05-27T09:47:50;96669.16;;;22.34;53.48
57594;BME280;43423;46.510;6.686;2023-05-27T09:50:17;96674.44;;;22.45;52.17
57594;BME280;43423;46.510;6.686;2023-05-27T09:52:44;96667.91;;;22.50;51.88
57594;BME280;43423;46.510;6.686;2023-05-27T09:55:12;96667.09;;;22.78;52.19
57594;BME280;43423;46.510;6.686;2023-05-27T09:57:39;96648.16;;;22.64;52.19
57594;BME280;43423;46.510;6.686;2023-05-27T10:03:03;96650.47;;;22.29;52.95
57594;BME280;43423;46.510;6.686;2023-05-27T10:05:29;96657.59;;;22.38;53.56
57594;BME280;43423;46.510;6.686;2023-05-27T10:07:55;96654.72;;;22.74;54.45
57594;BME280;43423;46.510;6.686;2023-05-27T10:10:22;96654.09;;;23.19;51.38
57594;BME280;43423;46.510;6.686;2023-05-27T10:12:51;96648.16;;;22.64;53.42
57594;BME280;43423;46.510;6.686;2023-05-27T10:15:33;96639.13;;;22.06;52.87
57594;BME280;43423;46.510;6.686;2023-05-27T10:18:01;96649.53;;;22.34;52.60
57594;BME280;43423;46.510;6.686;2023-05-27T10:20:30;96639.41;;;22.67;53.88
57594;BME280;43423;46.510;6.686;2023-05-27T10:23:09;96643.63;;;23.04;50.69
57594;BME280;43423;46.510;6.686;2023-05-27T10:25:45;96638.06;;;22.53;52.12
57594;BME280;43423;46.510;6.686;2023-05-27T10:28:32;96636.09;;;22.84;52.62
57594;BME280;43423;46.510;6.686;2023-05-27T10:31:08;96633.97;;;22.18;52.22
57594;BME280;43423;46.510;6.686;2023-05-27T10:33:37;96627.22;;;22.57;51.87
57594;BME280;43423;46.510;6.686;2023-05-27T10:36:11;96621.09;;;22.74;51.75
57594;BME280;43423;46.510;6.686;2023-05-27T10:38:38;96622.88;;;23.15;52.20
57594;BME280;43423;46.510;6.686;2023-05-27T10:41:06;96627.56;;;23.35;49.92
57594;BME280;43423;46.510;6.686;2023-05-27T10:43:33;96620.09;;;23.23;50.84
57594;BME280;43423;46.510;6.686;2023-05-27T10:46:11;96619.84;;;22.90;51.90
57594;BME280;43423;46.510;6.686;2023-05-27T10:48:37;96627.72;;;22.99;52.85
57594;BME280;43423;46.510;6.686;2023-05-27T10:51:05;96613.25;;;22.80;52.55
57594;BME280;43423;46.510;6.686;2023-05-27T10:53:34;96623.66;;;23.31;50.71
57594;BME280;43423;46.510;6.686;2023-05-27T10:56:00;96618.22;;;23.56;49.90
57594;BME280;43423;46.510;6.686;2023-05-27T10:58:26;96616.75;;;23.62;49.86
57594;BME280;43423;46.510;6.686;2023-05-27T11:00:54;96608.47;;;23.87;50.23
57594;BME280;43423;46.510;6.686;2023-05-27T11:03:21;96606.59;;;23.75;49.47
57594;BME280;43423;46.510;6.686;2023-05-27T11:06:02;96609.81;;;23.71;48.94
57594;BME280;43423;46.510;6.686;2023-05-27T11:08:29;96603.97;;;23.77;48.75
57594;BME280;43423;46.510;6.686;2023-05-27T11:11:06;96601.75;;;23.67;48.83
57594;BME280;43423;46.510;6.686;2023-05-27T11:13:35;96602.50;;;23.30;50.07
57594;BME280;43423;46.510;6.686;2023-05-27T11:16:53;96595.19;;;23.42;52.08
57594;BME280;43423;46.510;6.686;2023-05-27T11:19:20;96607.34;;;23.83;50.36
57594;BME280;43423;46.510;6.686;2023-05-27T11:21:47;96592.34;;;23.88;50.16
57594;BME280;43423;46.510;6.686;2023-05-27T11:24:19;96586.22;;;23.66;49.67
57594;BME280;43423;46.510;6.686;2023-05-27T11:26:47;96593.81;;;23.97;49.67
57594;BME280;43423;46.510;6.686;2023-05-27T11:29:13;96588.91;;;24.12;49.43
57594;BME280;43423;46.510;6.686;2023-05-27T11:31:40;96584.88;;;23.83;49.81
57594;BME280;43423;46.510;6.686;2023-05-27T11:34:15;96573.69;;;23.22;53.20
57594;BME280;43423;46.510;6.686;2023-05-27T11:37:01;96579.09;;;22.97;52.43
57594;BME280;43423;46.510;6.686;2023-05-27T11:39:29;96574.19;;;22.82;52.44
57594;BME280;43423;46.510;6.686;2023-05-27T11:41:55;96579.09;;;22.97;52.33
57594;BME280;43423;46.510;6.686;2023-05-27T11:44:22;96574.63;;;23.17;53.66
57594;BME280;43423;46.510;6.686;2023-05-27T11:46:49;96573.34;;;23.18;53.49
57594;BME280;43423;46.510;6.686;2023-05-27T11:49:19;96571.44;;;22.90;53.75
57594;BME280;43423;46.510;6.686;2023-05-27T11:51:54;96569.03;;;23.09;52.55
57594;BME280;43423;46.510;6.686;2023-05-27T11:58:24;96551.63;;;23.03;52.79
57594;BME280;43423;46.510;6.686;2023-05-27T12:00:59;96556.09;;;23.36;51.02
57594;BME280;43423;46.510;6.686;2023-05-27T12:03:50;96549.16;;;23.45;53.01
57594;BME280;43423;46.510;6.686;2023-05-27T12:06:16;96543.97;;;23.19;51.99
57594;BME280;43423;46.510;6.686;2023-05-27T12:08:42;96548.44;;;23.22;51.79
57594;BME280;43423;46.510;6.686;2023-05-27T12:11:08;96537.75;;;22.82;53.21
57594;BME280;43423;46.510;6.686;2023-05-27T12:13:34;96543.22;;;23.03;52.58
57594;BME280;43423;46.510;6.686;2023-05-27T12:15:59;96539.69;;;23.10;52.86
57594;BME280;43423;46.510;6.686;2023-05-27T12:18:44;96539.66;;;23.33;51.81
57594;BME280;43423;46.510;6.686;2023-05-27T12:24:31;96533.06;;;23.46;51.67
57594;BME280;43423;46.510;6.686;2023-05-27T12:26:59;96526.16;;;23.62;50.82
57594;BME280;43423;46.510;6.686;2023-05-27T12:29:26;96521.47;;;23.49;51.01
57594;BME280;43423;46.510;6.686;2023-05-27T12:31:52;96525.78;;;23.65;52.27
57594;BME280;43423;46.510;6.686;2023-05-27T12:34:18;96525.00;;;23.73;50.40
57594;BME280;43423;46.510;6.686;2023-05-27T12:36:43;96519.41;;;23.73;51.45
57594;BME280;43423;46.510;6.686;2023-05-27T12:39:09;96523.47;;;23.87;51.81
57594;BME280;43423;46.510;6.686;2023-05-27T12:41:35;96521.63;;;23.74;51.58
57594;BME280;43423;46.510;6.686;2023-05-27T12:44:01;96523.53;;;23.72;50.31
57594;BME280;43423;46.510;6.686;2023-05-27T12:46:27;96515.69;;;23.62;53.40
57594;BME280;43423;46.510;6.686;2023-05-27T12:48:53;96512.25;;;23.79;52.39
57594;BME280;43423;46.510;6.686;2023-05-27T12:51:18;96510.56;;;23.84;51.87
57594;BME280;43423;46.510;6.686;2023-05-27T12:53:44;96513.41;;;23.68;50.23
57594;BME280;43423;46.510;6.686;2023-05-27T12:56:09;96508.81;;;23.96;49.75
57594;BME280;43423;46.510;6.686;2023-05-27T12:58:35;96507.84;;;24.01;49.38
57594;BME280;43423;46.510;6.686;2023-05-27T13:01:01;96500.47;;;23.81;49.74
57594;BME280;43423;46.510;6.686;2023-05-27T13:03:27;96504.78;;;23.74;50.14
57594;BME280;43423;46.510;6.686;2023-05-27T13:05:52;96502.31;;;23.86;50.89
57594;BME280;43423;46.510;6.686;2023-05-27T13:08:18;96491.59;;;23.92;50.86
57594;BME280;43423;46.510;6.686;2023-05-27T13:10:43;96490.28;;;23.93;50.60
57594;BME280;43423;46.510;6.686;2023-05-27T13:13:10;96493.91;;;23.86;51.61
57594;BME280;43423;46.510;6.686;2023-05-27T13:15:35;96486.28;;;23.71;53.38
57594;BME280;43423;46.510;6.686;2023-05-27T13:18:01;96484.03;;;23.62;50.46